Time;durP1;ratioP1;P1;durP2;ratioP2;P2;SDS_P1;SDS_P2;PMS_P1;PMS_P2;Temp;Humidity;BMP_temperature;BMP_pressure;BME280_temperature;BME280_humidity;BME280_pressure;Samples;Min_cycle;Max_cycle;Signal;HPM_P1;HPM_P2
2022/05/08 00:00:04;;;;;;;8.38;7.53;;;17.80;66.70;;;;;;5091595;28;20040;-73
2022/05/08 00:02:30;;;;;;;10.43;8.90;;;17.80;66.70;;;;;;5092986;28;20021;-74
2022/05/08 00:04:56;;;;;;;10.27;9.05;;;17.80;66.60;;;;;;5083326;28;20086;-74
2022/05/08 00:07:23;;;;;;;9.95;8.77;;;17.70;66.60;;;;;;5072870;28;20391;-74
2022/05/08 00:09:49;;;;;;;9.55;8.43;;;17.70;66.60;;;;;;5072850;28;20025;-74
2022/05/08 00:12:16;;;;;;;11.23;8.18;;;17.70;66.60;;;;;;5072797;28;20028;-74
2022/05/08 00:14:43;;;;;;;8.77;7.80;;;17.70;66.60;;;;;;5072687;28;20366;-74
2022/05/08 00:17:11;;;;;;;11.35;10.15;;;17.60;66.60;;;;;;5078865;28;20095;-74
2022/05/08 00:19:44;;;;;;;15.50;9.95;;;17.60;66.70;;;;;;5092914;28;20020;-74
2022/05/08 00:22:11;;;;;;;10.88;9.35;;;17.60;66.80;;;;;;5092945;28;20024;-74
2022/05/08 00:24:37;;;;;;;11.98;9.50;;;17.60;66.70;;;;;;5091602;28;20497;-74
2022/05/08 00:27:03;;;;;;;10.35;9.25;;;17.60;66.80;;;;;;5081647;28;20044;-74
2022/05/08 00:29:29;;;;;;;10.10;8.63;;;17.50;66.90;;;;;;5078971;28;20028;-74
2022/05/08 00:31:55;;;;;;;10.10;9.07;;;17.50;67.00;;;;;;5091379;28;20038;-74
2022/05/08 00:34:24;;;;;;;9.98;8.82;;;17.50;67.10;;;;;;5092546;28;20045;-74
2022/05/08 00:36:50;;;;;;;10.43;9.32;;;17.50;67.30;;;;;;5091187;28;20028;-74
2022/05/08 00:39:20;;;;;;;10.55;8.40;;;17.50;67.30;;;;;;5091238;28;20556;-74
2022/05/08 00:41:46;;;;;;;8.65;7.72;;;17.50;67.30;;;;;;5092488;28;20020;-74
2022/05/08 00:44:13;;;;;;;9.32;7.68;;;17.50;67.30;;;;;;5092371;28;20016;-73
2022/05/08 00:46:40;;;;;;;10.68;9.52;;;17.50;67.40;;;;;;5086203;28;20482;-73
2022/05/08 00:49:06;;;;;;;10.38;8.88;;;17.50;67.50;;;;;;5072220;28;20098;-73
2022/05/08 00:51:35;;;;;;;9.60;8.55;;;17.50;67.40;;;;;;5072230;28;20029;-74
2022/05/08 00:54:03;;;;;;;8.70;7.75;;;17.60;67.50;;;;;;5072047;28;20061;-74
2022/05/08 00:56:29;;;;;;;10.07;8.32;;;17.60;67.50;;;;;;5073777;28;20020;-73
2022/05/08 00:58:56;;;;;;;10.88;8.82;;;17.60;67.50;;;;;;5092484;28;20103;-73
2022/05/08 01:01:22;;;;;;;10.25;8.70;;;17.60;68.30;;;;;;5092043;28;20044;-74
2022/05/08 01:03:48;;;;;;;10.07;8.57;;;17.60;67.50;;;;;;5085220;28;20393;-74
2022/05/08 01:06:17;;;;;;;9.45;7.85;;;17.60;67.40;;;;;;5074132;28;20029;-74
2022/05/08 01:08:45;;;;;;;9.95;8.88;;;17.60;67.40;;;;;;5075395;28;20032;-74
2022/05/08 01:11:12;;;;;;;11.95;9.20;;;17.60;67.40;;;;;;5074090;28;20481;-74
2022/05/08 01:13:40;;;;;;;8.95;8.05;;;17.60;67.30;;;;;;5075271;28;20024;-74
2022/05/08 01:16:11;;;;;;;8.98;8.02;;;17.60;67.30;;;;;;5075266;28;20480;-73
2022/05/08 01:18:38;;;;;;;10.27;8.05;;;17.60;67.30;;;;;;5073985;28;20024;-74
2022/05/08 01:21:07;;;;;;;11.25;7.95;;;17.70;67.40;;;;;;5075987;28;20061;-74
2022/05/08 01:23:33;;;;;;;9.38;8.00;;;17.70;67.40;;;;;;5093405;28;20020;-74
2022/05/08 01:25:59;;;;;;;11.05;8.10;;;17.70;67.40;;;;;;5092114;28;20031;-74
2022/05/08 01:28:25;;;;;;;10.20;8.30;;;17.70;67.40;;;;;;5075217;28;20489;-74
2022/05/08 01:30:53;;;;;;;9.95;8.38;;;17.70;67.30;;;;;;5073727;28;20036;-73
2022/05/08 01:33:20;;;;;;;10.00;8.38;;;17.70;67.30;;;;;;5075087;28;20099;-74
2022/05/08 01:35:46;;;;;;;10.70;8.25;;;17.70;67.30;;;;;;5075030;28;20032;-73
2022/05/08 01:38:14;;;;;;;9.82;8.82;;;17.70;67.20;;;;;;5074988;28;20078;-74
2022/05/08 01:40:41;;;;;;;10.80;8.88;;;17.70;67.20;;;;;;5074999;28;20020;-74
2022/05/08 01:43:07;;;;;;;10.27;8.25;;;17.70;67.10;;;;;;5078000;28;20115;-74
2022/05/08 01:45:33;;;;;;;9.23;8.27;;;17.70;67.10;;;;;;5075150;28;20359;-74
2022/05/08 01:50:44;;;;;;;10.98;8.18;;;17.70;67.00;;;;;;5075052;28;20442;-74
2022/05/08 01:53:10;;;;;;;9.15;8.13;;;17.70;67.00;;;;;;5073413;28;20111;-73
2022/05/08 01:55:36;;;;;;;9.80;7.78;;;17.70;67.10;;;;;;5073232;28;20047;-74
2022/05/08 01:58:03;;;;;;;8.68;7.68;;;17.70;67.00;;;;;;5074570;28;20031;-73
2022/05/08 02:00:30;;;;;;;10.05;8.77;;;17.70;67.10;;;;;;5074438;28;20098;-73
2022/05/08 02:03:00;;;;;;;9.88;7.88;;;17.70;67.00;;;;;;5074593;28;20039;-74
2022/05/08 02:05:30;;;;;;;8.88;7.97;;;17.70;66.90;;;;;;5074493;28;20034;-74
2022/05/08 02:07:56;;;;;;;8.60;7.63;;;17.70;66.90;;;;;;5074789;28;20021;-74
2022/05/08 02:10:23;;;;;;;8.45;7.53;;;17.70;66.80;;;;;;5074318;28;20024;-74
2022/05/08 02:12:49;;;;;;;8.75;7.85;;;17.70;66.80;;;;;;5074316;28;20078;-73
2022/05/08 02:15:15;;;;;;;9.70;7.93;;;17.70;66.80;;;;;;5073715;28;20017;-74
2022/05/08 02:17:41;;;;;;;9.13;7.30;;;17.70;66.70;;;;;;5074002;28;20448;-74
2022/05/08 02:20:08;;;;;;;11.60;6.93;;;17.60;66.70;;;;;;5072954;28;20032;-73
2022/05/08 02:22:36;;;;;;;8.40;7.22;;;17.60;66.70;;;;;;5072798;28;20082;-73
2022/05/08 02:25:02;;;;;;;8.52;7.68;;;17.60;66.70;;;;;;5074060;28;20020;-74
2022/05/08 02:27:41;;;;;;;10.20;7.00;;;17.60;66.80;;;;;;5074233;28;20382;-73
2022/05/08 02:30:11;;;;;;;13.27;7.18;;;17.60;66.80;;;;;;5073979;28;20024;-73
2022/05/08 02:32:38;;;;;;;9.27;7.13;;;17.60;66.80;;;;;;5073892;28;20059;-73
2022/05/08 02:35:06;;;;;;;9.10;7.85;;;17.60;66.70;;;;;;5073758;28;20032;-73
2022/05/08 02:37:32;;;;;;;7.70;6.72;;;17.60;66.70;;;;;;5073831;28;20020;-74
2022/05/08 02:39:58;;;;;;;8.00;6.90;;;17.60;66.70;;;;;;5074123;28;20021;-73
2022/05/08 02:42:24;;;;;;;10.38;7.80;;;17.60;66.70;;;;;;5073713;28;20470;-74
2022/05/08 02:44:49;;;;;;;8.52;7.63;;;17.60;66.70;;;;;;5072327;28;20029;-74
2022/05/08 02:47:15;;;;;;;9.00;7.57;;;17.60;66.80;;;;;;5089259;28;20115;-73
2022/05/08 02:49:41;;;;;;;7.95;7.07;;;17.60;66.70;;;;;;5073591;28;20099;-73
2022/05/08 02:52:07;;;;;;;8.32;7.22;;;17.60;66.70;;;;;;5088249;28;20059;-74
2022/05/08 02:54:33;;;;;;;8.13;6.68;;;17.60;66.80;;;;;;5073388;28;20029;-73
2022/05/08 02:59:43;;;;;;;8.55;6.80;;;17.60;66.80;;;;;;5073300;28;20031;-73
2022/05/08 03:02:09;;;;;;;7.82;7.03;;;17.60;66.70;;;;;;5073387;28;20029;-73
2022/05/08 03:04:35;;;;;;;8.60;7.28;;;17.60;66.70;;;;;;5072062;28;20024;-73
2022/05/08 03:07:04;;;;;;;7.35;6.60;;;17.60;66.80;;;;;;5073245;28;20107;-73
2022/05/08 03:09:29;;;;;;;7.70;6.80;;;17.60;66.80;;;;;;5073264;28;20393;-73
2022/05/08 03:11:55;;;;;;;6.57;5.90;;;17.60;66.70;;;;;;5073485;28;20029;-73
2022/05/08 03:14:21;;;;;;;8.15;6.70;;;17.60;66.70;;;;;;5073084;28;20052;-74
2022/05/08 03:16:47;;;;;;;7.03;6.05;;;17.70;66.80;;;;;;5071926;28;20024;-73
2022/05/08 03:19:13;;;;;;;9.38;6.43;;;17.70;66.70;;;;;;5073111;28;20100;-73
2022/05/08 03:21:40;;;;;;;6.97;6.22;;;17.60;66.50;;;;;;5073154;28;20371;-73
2022/05/08 03:24:07;;;;;;;8.18;6.85;;;17.60;66.50;;;;;;5073026;28;20017;-74
2022/05/08 03:26:34;;;;;;;10.02;6.75;;;17.60;66.50;;;;;;5071567;28;20031;-73
2022/05/08 03:29:00;;;;;;;6.82;6.13;;;17.60;66.50;;;;;;5072861;28;20390;-73
2022/05/08 03:31:26;;;;;;;7.93;6.18;;;17.60;66.50;;;;;;5072964;28;20025;-73
2022/05/08 03:33:51;;;;;;;8.23;6.93;;;17.60;66.50;;;;;;5072845;28;20123;-73
2022/05/08 03:36:17;;;;;;;7.03;6.32;;;17.60;66.50;;;;;;5072914;28;20025;-74
2022/05/08 03:38:45;;;;;;;7.57;6.68;;;17.60;66.60;;;;;;5072790;28;20065;-73
2022/05/08 03:41:15;;;;;;;9.85;5.40;;;17.60;66.50;;;;;;5073137;28;20040;-73
2022/05/08 03:43:45;;;;;;;7.55;6.53;;;17.60;66.60;;;;;;5072833;28;20085;-73
2022/05/08 03:46:11;;;;;;;7.80;6.30;;;17.60;66.60;;;;;;5071443;28;20126;-73
2022/05/08 03:48:36;;;;;;;6.60;5.93;;;17.60;66.60;;;;;;5072777;28;20025;-73
2022/05/08 03:51:03;;;;;;;9.10;6.50;;;17.60;66.60;;;;;;5072737;28;20024;-73
2022/05/08 03:53:29;;;;;;;6.72;6.00;;;17.60;66.60;;;;;;5072768;28;20103;-73
2022/05/08 03:55:55;;;;;;;8.02;7.22;;;17.60;66.60;;;;;;5072708;28;20099;-73
2022/05/08 03:58:20;;;;;;;7.50;6.80;;;17.60;66.70;;;;;;5071285;28;20036;-74
2022/05/08 04:00:46;;;;;;;11.07;8.38;;;17.60;66.70;;;;;;5072541;28;20506;-73
2022/05/08 04:03:12;;;;;;;17.15;7.72;;;17.60;66.80;;;;;;5072745;28;20100;-73
2022/05/08 04:05:38;;;;;;;8.10;6.97;;;17.60;66.80;;;;;;5071435;28;20035;-73
2022/05/08 04:08:04;;;;;;;9.48;7.65;;;17.50;66.70;;;;;;5071451;28;20440;-73
2022/05/08 04:10:30;;;;;;;10.73;7.72;;;17.60;66.80;;;;;;5072921;28;20031;-74
2022/05/08 04:12:56;;;;;;;9.75;7.88;;;17.60;66.80;;;;;;5078850;28;20020;-74
2022/05/08 04:18:07;;;;;;;9.13;7.53;;;17.60;66.90;;;;;;5092812;28;20027;-73
2022/05/08 04:20:33;;;;;;;8.65;7.75;;;17.60;66.80;;;;;;5092728;28;20020;-73
2022/05/08 04:25:56;;;;;;;9.85;7.90;;;17.60;66.90;;;;;;5058409;28;20063;-73
2022/05/08 04:28:22;;;;;;;10.52;6.90;;;17.70;67.00;;;;;;5092636;28;20101;-74
2022/05/08 04:30:50;;;;;;;7.97;7.18;;;17.70;67.00;;;;;;5092632;28;20032;-73
2022/05/08 04:33:15;;;;;;;8.93;8.07;;;17.70;67.00;;;;;;5091304;28;20462;-73
2022/05/08 04:35:41;;;;;;;8.18;7.38;;;17.70;66.90;;;;;;5091233;28;20028;-73
2022/05/08 04:38:07;;;;;;;8.70;7.82;;;17.70;66.90;;;;;;5091178;28;20028;-73
2022/05/08 04:40:33;;;;;;;8.32;7.53;;;17.80;66.90;;;;;;5093910;28;20020;-73
2022/05/08 04:42:59;;;;;;;9.38;7.63;;;17.80;66.90;;;;;;5096548;28;20462;-73
2022/05/08 04:45:25;;;;;;;14.30;7.18;;;17.80;66.90;;;;;;5096389;28;20020;-74
2022/05/08 04:47:51;;;;;;;8.02;6.70;;;17.90;66.90;;;;;;5096281;28;20035;-73
2022/05/08 04:50:17;;;;;;;8.45;6.70;;;17.90;66.90;;;;;;5096248;28;20027;-73
2022/05/08 04:52:42;;;;;;;10.95;6.30;;;17.90;66.90;;;;;;5094965;28;20028;-73
2022/05/08 04:55:09;;;;;;;9.65;7.35;;;18.00;66.90;;;;;;5096137;28;20028;-73
2022/05/08 04:57:34;;;;;;;11.25;6.57;;;18.00;66.80;;;;;;5096140;28;20020;-73
2022/05/08 05:00:00;;;;;;;8.80;7.25;;;18.10;66.70;;;;;;5095989;28;20032;-74
2022/05/08 05:02:27;;;;;;;9.25;8.05;;;18.10;66.50;;;;;;5096165;28;20430;-74
2022/05/08 05:04:52;;;;;;;9.30;7.55;;;18.20;66.50;;;;;;5096037;28;20024;-73
2022/05/08 05:07:18;;;;;;;8.05;7.10;;;18.20;66.40;;;;;;5095918;28;20031;-74
2022/05/08 05:09:45;;;;;;;11.43;7.63;;;18.20;66.30;;;;;;5096169;28;20169;-74
2022/05/08 05:12:11;;;;;;;8.60;7.70;;;18.30;67.00;;;;;;5078037;28;20465;-73
2022/05/08 05:14:37;;;;;;;9.35;7.38;;;18.30;66.10;;;;;;5075500;28;20025;-73
2022/05/08 05:17:03;;;;;;;8.73;7.13;;;18.30;66.00;;;;;;5075560;28;20481;-74
2022/05/08 05:19:29;;;;;;;8.75;7.85;;;18.40;66.00;;;;;;5075716;28;20021;-74
2022/05/08 05:21:54;;;;;;;8.45;7.53;;;18.40;65.90;;;;;;5077227;28;20453;-74
2022/05/08 05:24:20;;;;;;;8.20;7.38;;;18.40;65.80;;;;;;5075383;28;20272;-74
2022/05/08 05:26:46;;;;;;;8.25;7.05;;;18.50;65.80;;;;;;5075341;28;20095;-74
2022/05/08 05:29:12;;;;;;;9.07;7.25;;;18.50;65.60;;;;;;5075348;28;20389;-74
2022/05/08 05:31:38;;;;;;;9.32;7.78;;;18.50;65.60;;;;;;5075238;28;20508;-74
2022/05/08 05:34:04;;;;;;;8.55;7.43;;;18.60;65.70;;;;;;5075099;28;20060;-73
2022/05/08 05:36:29;;;;;;;8.13;6.78;;;18.60;65.80;;;;;;5075107;28;20087;-73
2022/05/08 05:38:55;;;;;;;10.10;7.00;;;18.70;65.90;;;;;;5075162;28;20082;-74
2022/05/08 05:41:21;;;;;;;8.10;7.20;;;18.70;65.80;;;;;;5075418;28;20028;-73
2022/05/08 05:43:46;;;;;;;10.07;7.65;;;18.80;65.90;;;;;;5075079;28;20115;-73
2022/05/08 05:48:56;;;;;;;;;;;18.90;65.80;;;;;;5075948;28;20147;-74
2022/05/08 05:51:22;;;;;;;7.40;6.57;;;19.00;65.60;;;;;;5074735;28;20389;-73
2022/05/08 05:53:48;;;;;;;9.35;7.18;;;19.00;65.00;;;;;;5074795;28;20390;-73
2022/05/08 05:56:14;;;;;;;8.32;7.13;;;19.00;64.70;;;;;;5073974;28;20465;-74
2022/05/08 05:58:39;;;;;;;8.77;7.88;;;19.10;64.70;;;;;;5073521;28;20021;-73
2022/05/08 06:01:05;;;;;;;12.55;7.60;;;19.10;64.60;;;;;;5074616;28;20041;-73
2022/05/08 06:03:32;;;;;;;12.38;7.00;;;19.10;64.40;;;;;;5074673;28;20028;-74
2022/05/08 06:05:58;;;;;;;7.35;6.53;;;19.10;64.20;;;;;;5074682;28;20480;-74
2022/05/08 06:08:24;;;;;;;7.50;6.47;;;19.10;64.10;;;;;;5074666;28;20025;-73
2022/05/08 06:10:50;;;;;;;6.47;5.88;;;19.10;64.00;;;;;;5074859;28;20376;-74
2022/05/08 06:13:16;;;;;;;8.43;7.15;;;19.20;64.20;;;;;;5073233;28;20129;-73
2022/05/08 06:15:42;;;;;;;8.55;7.00;;;19.10;63.80;;;;;;5074363;28;20020;-74
2022/05/08 06:18:08;;;;;;;7.45;6.63;;;19.10;63.80;;;;;;5074375;28;20093;-74
2022/05/08 06:20:34;;;;;;;8.40;6.80;;;19.10;63.90;;;;;;5074345;28;20055;-74
2022/05/08 06:23:00;;;;;;;8.35;6.10;;;19.10;64.60;;;;;;5072980;28;20029;-74
2022/05/08 06:25:26;;;;;;;11.30;7.05;;;19.10;63.90;;;;;;5074181;28;20017;-73
2022/05/08 06:27:52;;;;;;;16.17;7.15;;;19.20;64.00;;;;;;5074169;28;20478;-73
2022/05/08 06:30:18;;;;;;;7.63;6.45;;;19.20;63.80;;;;;;5074136;28;20074;-73
2022/05/08 06:32:44;;;;;;;8.20;7.05;;;19.20;63.70;;;;;;5074111;28;20501;-74
2022/05/08 06:35:09;;;;;;;7.10;6.40;;;19.20;63.70;;;;;;5073889;28;20021;-73
2022/05/08 06:37:35;;;;;;;7.72;6.35;;;19.20;63.80;;;;;;5072717;28;20027;-73
2022/05/08 06:40:01;;;;;;;7.47;6.05;;;19.20;63.90;;;;;;5073999;28;20023;-73
2022/05/08 06:42:27;;;;;;;7.05;6.35;;;19.30;64.00;;;;;;5072779;28;20021;-73
2022/05/08 06:44:53;;;;;;;8.65;6.85;;;19.30;64.00;;;;;;5093966;28;20020;-74
2022/05/08 06:47:18;;;;;;;6.93;6.22;;;19.30;64.10;;;;;;5094122;28;20377;-73
2022/05/08 06:49:44;;;;;;;7.22;6.53;;;19.40;64.10;;;;;;5094035;28;20523;-73
2022/05/08 06:52:10;;;;;;;7.15;6.45;;;19.40;64.00;;;;;;5093991;28;20077;-73
2022/05/08 06:54:35;;;;;;;8.32;6.97;;;19.40;64.00;;;;;;5093890;28;20024;-74
2022/05/08 06:57:01;;;;;;;7.78;6.57;;;19.50;64.10;;;;;;5093808;28;20027;-74
2022/05/08 07:02:12;;;;;;;8.40;6.22;;;19.50;63.90;;;;;;5093528;28;20096;-73
2022/05/08 07:04:38;;;;;;;8.32;7.32;;;19.60;63.80;;;;;;5093765;28;20098;-74
2022/05/08 07:07:04;;;;;;;9.10;6.45;;;19.60;63.70;;;;;;5093687;28;20028;-73
2022/05/08 07:09:32;;;;;;;8.93;7.38;;;19.70;63.70;;;;;;5093713;28;20043;-73
2022/05/08 07:11:58;;;;;;;8.93;7.38;;;19.70;63.40;;;;;;5078798;28;20024;-73
2022/05/08 07:14:24;;;;;;;13.68;8.07;;;19.70;63.20;;;;;;5072039;28;20039;-73
2022/05/08 07:16:49;;;;;;;9.05;7.55;;;19.80;63.00;;;;;;5073354;28;20426;-74
2022/05/08 07:19:15;;;;;;;7.40;6.63;;;19.80;62.80;;;;;;5071970;28;20024;-73
2022/05/08 07:21:41;;;;;;;10.18;8.07;;;19.90;62.80;;;;;;5073174;28;20017;-73
2022/05/08 07:24:08;;;;;;;8.43;7.57;;;20.00;62.90;;;;;;5073117;28;20025;-74
2022/05/08 07:26:35;;;;;;;8.48;6.95;;;20.00;62.70;;;;;;5073165;28;20036;-74
2022/05/08 07:29:01;;;;;;;8.45;6.80;;;20.10;62.50;;;;;;5073064;28;20077;-73
2022/05/08 07:31:27;;;;;;;7.93;6.88;;;20.20;62.20;;;;;;5073091;28;20025;-73
2022/05/08 07:36:37;;;;;;;8.68;6.95;;;20.20;61.40;;;;;;5073098;28;20066;-74
2022/05/08 07:39:03;;;;;;;8.65;6.95;;;20.30;60.80;;;;;;5071697;28;20024;-73
2022/05/08 07:41:30;;;;;;;8.13;6.97;;;20.30;60.50;;;;;;5073213;28;20024;-74
2022/05/08 07:43:55;;;;;;;8.55;6.95;;;20.40;60.40;;;;;;5072835;28;20021;-72
2022/05/08 07:46:22;;;;;;;7.10;6.22;;;20.40;60.10;;;;;;5072908;28;20025;-73
2022/05/08 07:48:48;;;;;;;7.95;6.88;;;20.50;60.20;;;;;;5072836;28;20443;-72
2022/05/08 07:51:14;;;;;;;7.57;6.30;;;20.50;60.50;;;;;;5076018;28;20154;-73
2022/05/08 07:53:40;;;;;;;6.95;6.25;;;20.60;60.90;;;;;;5072981;28;20044;-73
2022/05/08 07:56:05;;;;;;;7.85;6.82;;;20.70;61.00;;;;;;5072743;28;20025;-73
2022/05/08 07:58:32;;;;;;;8.10;6.55;;;20.80;60.70;;;;;;5072691;28;20028;-73
2022/05/08 08:00:59;;;;;;;7.03;6.30;;;20.90;61.00;;;;;;5072337;28;20040;-72
2022/05/08 08:03:26;;;;;;;8.55;6.57;;;21.00;60.00;;;;;;5071443;28;20030;-72
2022/05/08 08:05:53;;;;;;;7.78;6.55;;;21.20;59.50;;;;;;5072660;28;20031;-72
2022/05/08 08:08:22;;;;;;;7.93;6.50;;;21.30;58.70;;;;;;5072530;28;20037;-72
2022/05/08 08:10:49;;;;;;;7.55;6.20;;;21.40;58.80;;;;;;5077587;28;20484;-73
2022/05/08 08:13:14;;;;;;;6.80;6.10;;;21.40;58.50;;;;;;5092368;28;20035;-73
2022/05/08 08:15:44;;;;;;;9.73;6.47;;;21.50;58.20;;;;;;5096816;28;20420;-73
2022/05/08 08:18:11;;;;;;;10.15;6.50;;;21.50;58.30;;;;;;5095839;28;20035;-72
2022/05/08 08:20:38;;;;;;;7.00;6.30;;;21.50;57.90;;;;;;5096742;28;20016;-72
2022/05/08 08:23:05;;;;;;;10.15;7.85;;;21.60;57.50;;;;;;5096927;28;20048;-72
2022/05/08 08:25:31;;;;;;;8.52;6.45;;;21.60;56.80;;;;;;5096861;28;20036;-72
2022/05/08 08:27:57;;;;;;;7.72;5.75;;;21.60;56.80;;;;;;5096867;28;20024;-73
2022/05/08 08:30:22;;;;;;;7.05;5.90;;;21.60;57.10;;;;;;5096825;28;20545;-73
2022/05/08 08:32:48;;;;;;;6.97;6.07;;;21.60;57.20;;;;;;5090898;28;20103;-73
2022/05/08 08:35:14;;;;;;;6.60;5.57;;;21.70;57.20;;;;;;5095371;28;20039;-73
2022/05/08 08:37:40;;;;;;;6.05;5.45;;;21.80;57.10;;;;;;5096712;28;20035;-73
2022/05/08 08:40:08;;;;;;;8.48;5.30;;;21.80;57.00;;;;;;5084026;28;20012;-73
2022/05/08 08:42:39;;;;;;;6.80;5.70;;;21.90;56.80;;;;;;5076632;28;20028;-73
2022/05/08 08:47:52;;;;;;;7.07;5.97;;;22.10;56.50;;;;;;5076523;28;20151;-73
2022/05/08 08:50:19;;;;;;;6.82;5.45;;;22.10;56.10;;;;;;5076141;28;20105;-73
2022/05/08 08:52:46;;;;;;;6.97;5.85;;;22.20;56.10;;;;;;5076156;28;20021;-73
2022/05/08 08:55:14;;;;;;;8.68;5.55;;;22.30;55.70;;;;;;5075982;28;20385;-73
2022/05/08 08:57:40;;;;;;;6.78;5.55;;;22.40;55.70;;;;;;5074699;28;20021;-73
2022/05/08 09:00:07;;;;;;;8.85;6.00;;;22.50;54.80;;;;;;5075755;28;20024;-73
2022/05/08 09:02:34;;;;;;;7.15;6.10;;;22.60;54.40;;;;;;5075964;28;20031;-73
2022/05/08 09:05:07;;;;;;;6.15;5.28;;;22.60;54.40;;;;;;5075923;28;20020;-73
2022/05/08 09:07:40;;;;;;;7.10;5.78;;;22.70;53.90;;;;;;5076008;28;20488;-73
2022/05/08 09:10:13;;;;;;;8.90;6.50;;;22.70;53.80;;;;;;5076117;28;20028;-74
2022/05/08 09:12:43;;;;;;;7.25;6.30;;;22.80;53.80;;;;;;5074674;28;20024;-73
2022/05/08 09:15:36;;;;;;;11.27;7.28;;;22.80;53.90;;;;;;5075631;28;20481;-74
2022/05/08 09:18:07;;;;;;;10.98;7.72;;;22.80;53.90;;;;;;5075666;28;20028;-72
2022/05/08 09:20:44;;;;;;;16.40;8.77;;;22.90;53.60;;;;;;5075606;28;20039;-73
2022/05/08 09:23:15;;;;;;;11.70;7.65;;;23.00;53.40;;;;;;5076710;28;20539;-73
2022/05/08 09:25:44;;;;;;;8.30;5.47;;;23.10;53.30;;;;;;5095067;28;20054;-73
2022/05/08 09:28:34;;;;;;;7.90;5.80;;;23.10;52.90;;;;;;5095647;28;20028;-72
2022/05/08 09:31:13;;;;;;;6.88;5.95;;;23.20;52.20;;;;;;5081216;28;20115;-72
2022/05/08 09:33:43;;;;;;;26.52;16.02;;;23.30;52.50;;;;;;5085180;28;20031;-72
2022/05/08 09:36:24;;;;;;;23.98;15.70;;;23.40;51.90;;;;;;5075266;28;20465;-72
2022/05/08 09:39:00;;;;;;;15.68;8.27;;;23.50;51.80;;;;;;5075270;28;20100;-72
2022/05/08 09:41:30;;;;;;;9.23;6.25;;;23.60;52.00;;;;;;5075450;28;20028;-72
2022/05/08 09:44:14;;;;;;;6.32;5.45;;;23.70;51.20;;;;;;5073825;28;20474;-72
2022/05/08 09:46:45;;;;;;;6.30;5.70;;;23.90;51.90;;;;;;5075104;28;20028;-72
2022/05/08 09:49:22;;;;;;;6.72;5.57;;;24.00;50.90;;;;;;5075020;28;20032;-72
2022/05/08 09:51:48;;;;;;;6.85;5.78;;;24.10;51.00;;;;;;5073720;28;20032;-72
2022/05/08 09:54:18;;;;;;;10.38;6.80;;;24.30;50.00;;;;;;5073548;28;20385;-72
2022/05/08 09:56:45;;;;;;;7.93;5.90;;;24.40;49.80;;;;;;5073507;28;20048;-72
2022/05/08 09:59:12;;;;;;;8.07;5.47;;;24.50;48.60;;;;;;5073599;28;20466;-72
2022/05/08 10:01:38;;;;;;;7.10;5.40;;;24.60;49.00;;;;;;5074412;28;20049;-72
2022/05/08 10:04:04;;;;;;;7.53;6.18;;;24.80;49.10;;;;;;5074738;28;20028;-73
2022/05/08 10:06:33;;;;;;;7.93;6.30;;;24.90;48.30;;;;;;5073419;28;20547;-72
2022/05/08 10:14:35;;;;;;;8.40;6.18;;;25.60;47.60;;;;;;5094739;28;20069;-73
2022/05/08 10:17:04;;;;;;;5.32;4.63;;;25.90;46.70;;;;;;5093410;28;20110;-72
2022/05/08 10:19:29;;;;;;;7.57;4.35;;;26.10;46.00;;;;;;5076365;28;20391;-73
2022/05/08 10:22:13;;;;;;;16.48;6.95;;;26.40;46.10;;;;;;5074277;28;20051;-72
2022/05/08 10:24:47;;;;;;;8.67;7.77;;;26.70;45.20;;;;;;5074286;28;20410;-72
2022/05/08 10:27:26;;;;;;;16.33;12.75;;;26.90;44.80;;;;;;5074199;28;20321;-72
2022/05/08 10:29:54;;;;;;;59.42;39.25;;;27.10;44.60;;;;;;5074118;28;20031;-72
2022/05/08 10:32:32;;;;;;;60.22;38.65;;;27.30;44.00;;;;;;5074110;28;20029;-72
2022/05/08 10:35:12;;;;;;;9.77;7.82;;;27.30;43.20;;;;;;5072828;28;20028;-72
2022/05/08 10:37:42;;;;;;;6.93;5.32;;;27.40;41.80;;;;;;5071848;28;20021;-73
2022/05/08 10:40:23;;;;;;;5.57;5.07;;;27.30;41.90;;;;;;5074071;28;20064;-72
2022/05/08 10:42:50;;;;;;;5.82;4.00;;;27.20;42.30;;;;;;5073996;28;20029;-73
2022/05/08 10:45:31;;;;;;;4.97;3.63;;;27.20;41.30;;;;;;5072589;28;20047;-73
2022/05/08 10:47:58;;;;;;;3.88;3.53;;;27.20;42.10;;;;;;5073714;28;20473;-73
2022/05/08 10:50:24;;;;;;;3.40;3.00;;;27.20;41.80;;;;;;5073733;28;20031;-73
2022/05/08 10:52:51;;;;;;;4.10;3.05;;;27.20;41.70;;;;;;5073749;28;20144;-73
2022/05/08 10:55:18;;;;;;;4.18;3.65;;;27.30;41.60;;;;;;5072278;28;20111;-72
2022/05/08 10:57:46;;;;;;;3.92;3.30;;;27.30;40.30;;;;;;5073620;28;20020;-73
2022/05/08 11:00:22;;;;;;;5.00;3.90;;;27.40;41.40;;;;;;5075129;28;20028;-73
2022/05/08 11:02:56;;;;;;;4.35;3.95;;;27.50;40.90;;;;;;5092714;28;20389;-73
2022/05/08 11:05:38;;;;;;;5.70;4.22;;;27.50;39.60;;;;;;5092569;28;20059;-73
2022/05/08 11:08:12;;;;;;;7.57;4.38;;;27.50;40.80;;;;;;5093765;28;20384;-73
2022/05/08 11:10:42;;;;;;;5.78;4.40;;;27.60;39.10;;;;;;5090163;28;20020;-73
2022/05/08 11:13:09;;;;;;;7.10;4.30;;;27.50;39.50;;;;;;5072127;28;20436;-73
2022/05/08 11:15:38;;;;;;;4.95;4.03;;;27.40;38.50;;;;;;5073294;28;20382;-73
2022/05/08 11:18:07;;;;;;;5.20;3.30;;;27.30;39.30;;;;;;5073309;28;20021;-73
2022/05/08 11:20:38;;;;;;;8.55;4.32;;;27.20;39.70;;;;;;5072026;28;20074;-73
2022/05/08 11:23:05;;;;;;;4.65;3.72;;;27.20;39.60;;;;;;5072256;28;20363;-73
2022/05/08 11:25:32;;;;;;;4.93;4.00;;;27.20;39.90;;;;;;5073229;28;20020;-73
2022/05/08 11:27:58;;;;;;;10.35;3.35;;;27.20;39.40;;;;;;5073179;28;20025;-73
2022/05/08 11:30:36;;;;;;;5.15;4.30;;;27.10;39.60;;;;;;5073058;28;20492;-72
2022/05/08 11:36:06;;;;;;;7.57;5.13;;;26.80;39.90;;;;;;5073137;28;20108;-72
2022/05/08 11:38:43;;;;;;;5.93;4.28;;;26.60;39.60;;;;;;5073086;28;20016;-72
2022/05/08 11:41:16;;;;;;;6.28;5.18;;;26.30;40.00;;;;;;5073308;28;20031;-72
2022/05/08 11:43:49;;;;;;;5.20;4.68;;;26.00;40.40;;;;;;5072994;28;20017;-72
2022/05/08 11:46:17;;;;;;;8.43;4.57;;;25.80;41.10;;;;;;5073028;28;20054;-72
2022/05/08 11:48:48;;;;;;;6.25;4.53;;;25.70;41.40;;;;;;5071349;28;20515;-72
2022/05/08 11:51:16;;;;;;;4.45;4.05;;;25.50;41.30;;;;;;5072941;28;20092;-72
2022/05/08 11:53:45;;;;;;;8.98;5.03;;;25.40;41.80;;;;;;5071615;28;20045;-72
2022/05/08 11:56:32;;;;;;;7.03;4.88;;;25.30;41.50;;;;;;5072682;28;20029;-72
2022/05/08 11:59:03;;;;;;;4.90;3.67;;;25.20;42.30;;;;;;5072779;28;20024;-73
2022/05/08 12:01:31;;;;;;;5.53;3.92;;;25.30;42.00;;;;;;5071426;28;20119;-72
2022/05/08 12:04:33;;;;;;;3.90;3.45;;;25.30;42.40;;;;;;5074137;28;20025;-72
2022/05/08 12:07:04;;;;;;;5.47;3.05;;;25.50;42.40;;;;;;5071438;28;20021;-72
2022/05/08 12:09:37;;;;;;;4.00;3.60;;;25.70;42.30;;;;;;5072709;28;20438;-72
2022/05/08 12:12:29;;;;;;;12.17;3.23;;;26.00;42.00;;;;;;5072914;28;20490;-72
2022/05/08 12:15:06;;;;;;;4.07;3.55;;;26.30;42.50;;;;;;5071287;28;20047;-73
2022/05/08 12:17:42;;;;;;;3.63;2.40;;;26.60;41.00;;;;;;5071150;28;20440;-72
2022/05/08 12:20:15;;;;;;;3.95;3.35;;;26.80;40.80;;;;;;5072380;28;20021;-72
2022/05/08 12:22:41;;;;;;;3.45;2.50;;;27.10;40.10;;;;;;5071094;28;20537;-72
2022/05/08 12:25:08;;;;;;;9.35;2.97;;;27.30;39.80;;;;;;5072435;28;20500;-72
2022/05/08 12:27:34;;;;;;;5.20;2.58;;;27.50;37.90;;;;;;5072609;28;20029;-74
2022/05/08 12:30:01;;;;;;;5.63;2.55;;;27.70;37.40;;;;;;5076256;28;20069;-71
2022/05/08 12:32:30;;;;;;;9.15;2.60;;;27.90;37.80;;;;;;5072306;28;20484;-71
2022/05/08 12:34:59;;;;;;;2.92;2.58;;;28.10;37.40;;;;;;5070977;28;20035;-72
2022/05/08 12:37:24;;;;;;;3.85;2.90;;;28.20;37.40;;;;;;5072462;28;20443;-72
2022/05/08 12:39:50;;;;;;;2.95;2.50;;;28.30;37.40;;;;;;5072439;28;20024;-72
2022/05/08 12:42:16;;;;;;;4.15;3.40;;;28.50;37.40;;;;;;5072699;28;20127;-72
2022/05/08 12:44:43;;;;;;;7.45;3.92;;;28.60;37.50;;;;;;5071133;28;20077;-72
2022/05/08 12:47:13;;;;;;;6.15;3.28;;;28.70;36.10;;;;;;5072412;28;20033;-72
2022/05/08 12:49:42;;;;;;;3.67;2.90;;;28.70;36.50;;;;;;5072418;28;20016;-72
2022/05/08 12:52:09;;;;;;;4.85;2.85;;;28.80;36.20;;;;;;5072300;28;20127;-72
2022/05/08 12:54:35;;;;;;;4.10;3.70;;;28.70;36.10;;;;;;5072140;28;20028;-72
2022/05/08 12:57:06;;;;;;;4.40;3.97;;;28.70;35.90;;;;;;5070876;28;20025;-72
2022/05/08 12:59:47;;;;;;;5.40;4.20;;;28.60;35.80;;;;;;5072585;28;20104;-72
2022/05/08 13:02:19;;;;;;;4.93;3.92;;;28.60;36.10;;;;;;5074494;28;20624;-72
2022/05/08 13:04:48;;;;;;;3.80;3.42;;;28.60;36.20;;;;;;5075857;28;20078;-72
2022/05/08 13:07:14;;;;;;;3.33;2.83;;;28.60;36.60;;;;;;5074580;28;20032;-72
2022/05/08 13:09:40;;;;;;;4.15;3.05;;;28.60;36.50;;;;;;5075716;28;20436;-72
2022/05/08 13:12:07;;;;;;;2.80;2.60;;;28.70;36.30;;;;;;5075929;28;20127;-73
2022/05/08 13:14:33;;;;;;;4.70;3.40;;;28.70;36.40;;;;;;5074371;28;20032;-72
2022/05/08 13:17:00;;;;;;;3.30;2.92;;;28.80;35.20;;;;;;5075658;28;20047;-72
2022/05/08 13:19:29;;;;;;;6.30;3.90;;;28.80;35.80;;;;;;5074365;28;20021;-72